sensor_id;sensor_type;location;lat;lon;timestamp;temperature;humidity
53310;DHT22;39197;53.200;5.792;2023-10-08T00:01:03;13.80;99.90
53310;DHT22;39197;53.200;5.792;2023-10-08T00:03:31;13.70;99.90
53310;DHT22;39197;53.200;5.792;2023-10-08T00:06:02;13.60;99.90
53310;DHT22;39197;53.200;5.792;2023-10-08T00:08:32;13.60;99.90
53310;DHT22;39197;53.200;5.792;2023-10-08T00:10:58;13.60;99.90
53310;DHT22;39197;53.200;5.792;2023-10-08T00:13:31;13.50;99.90
53310;DHT22;39197;53.200;5.792;2023-10-08T00:15:57;13.50;99.90
53310;DHT22;39197;53.200;5.792;2023-10-08T00:18:23;13.50;99.90
53310;DHT22;39197;53.200;5.792;2023-10-08T00:20:52;13.50;99.90
53310;DHT22;39197;53.200;5.792;2023-10-08T00:23:35;13.50;99.90
53310;DHT22;39197;53.200;5.792;2023-10-08T00:26:18;13.40;99.90
53310;DHT22;39197;53.200;5.792;2023-10-08T00:28:49;13.50;99.90
53310;DHT22;39197;53.200;5.792;2023-10-08T00:31:17;13.40;99.90
53310;DHT22;39197;53.200;5.792;2023-10-08T00:33:43;13.40;99.90
53310;DHT22;39197;53.200;5.792;2023-10-08T00:36:10;13.50;99.90
53310;DHT22;39197;53.200;5.792;2023-10-08T00:38:52;13.40;99.90
53310;DHT22;39197;53.200;5.792;2023-10-08T00:41:24;13.50;99.90
53310;DHT22;39197;53.200;5.792;2023-10-08T00:43:54;13.50;99.90
53310;DHT22;39197;53.200;5.792;2023-10-08T00:46:22;13.40;99.90
53310;DHT22;39197;53.200;5.792;2023-10-08T00:48:52;13.40;99.90
53310;DHT22;39197;53.200;5.792;2023-10-08T00:51:28;13.40;99.90
53310;DHT22;39197;53.200;5.792;2023-10-08T00:54:06;13.50;99.90
53310;DHT22;39197;53.200;5.792;2023-10-08T00:56:45;13.50;99.90
53310;DHT22;39197;53.200;5.792;2023-10-08T00:59:24;13.40;99.90
53310;DHT22;39197;53.200;5.792;2023-10-08T01:01:58;13.40;99.90
53310;DHT22;39197;53.200;5.792;2023-10-08T01:04:30;13.40;99.90
53310;DHT22;39197;53.200;5.792;2023-10-08T01:07:00;13.50;99.90
53310;DHT22;39197;53.200;5.792;2023-10-08T01:09:38;13.50;99.90
53310;DHT22;39197;53.200;5.792;2023-10-08T01:12:20;13.50;99.90
53310;DHT22;39197;53.200;5.792;2023-10-08T01:14:53;13.50;99.90
53310;DHT22;39197;53.200;5.792;2023-10-08T01:17:20;13.50;99.90
53310;DHT22;39197;53.200;5.792;2023-10-08T01:19:50;13.50;99.90
53310;DHT22;39197;53.200;5.792;2023-10-08T01:22:34;13.50;99.90
53310;DHT22;39197;53.200;5.792;2023-10-08T01:25:00;13.50;99.90
53310;DHT22;39197;53.200;5.792;2023-10-08T01:27:30;13.50;99.90
53310;DHT22;39197;53.200;5.792;2023-10-08T01:30:00;13.50;99.90
53310;DHT22;39197;53.200;5.792;2023-10-08T01:32:43;13.50;99.90
53310;DHT22;39197;53.200;5.792;2023-10-08T01:35:09;13.40;99.90
53310;DHT22;39197;53.200;5.792;2023-10-08T01:37:54;13.60;99.90
53310;DHT22;39197;53.200;5.792;2023-10-08T01:40:22;13.50;99.90
53310;DHT22;39197;53.200;5.792;2023-10-08T01:42:50;13.50;99.90
53310;DHT22;39197;53.200;5.792;2023-10-08T01:45:17;13.50;99.90
53310;DHT22;39197;53.200;5.792;2023-10-08T01:47:44;13.50;99.90
53310;DHT22;39197;53.200;5.792;2023-10-08T01:50:09;13.50;99.90
53310;DHT22;39197;53.200;5.792;2023-10-08T01:52:47;13.50;99.90
53310;DHT22;39197;53.200;5.792;2023-10-08T01:55:13;13.60;99.90
53310;DHT22;39197;53.200;5.792;2023-10-08T01:57:46;13.50;99.90
53310;DHT22;39197;53.200;5.792;2023-10-08T02:00:12;13.60;99.90
53310;DHT22;39197;53.200;5.792;2023-10-08T02:02:51;13.60;99.90
53310;DHT22;39197;53.200;5.792;2023-10-08T02:05:17;13.60;99.90
53310;DHT22;39197;53.200;5.792;2023-10-08T02:07:47;13.60;99.90
53310;DHT22;39197;53.200;5.792;2023-10-08T02:10:13;13.50;99.90
53310;DHT22;39197;53.200;5.792;2023-10-08T02:12:42;13.50;99.90
53310;DHT22;39197;53.200;5.792;2023-10-08T02:15:08;13.60;99.90
53310;DHT22;39197;53.200;5.792;2023-10-08T02:17:37;13.60;99.90
53310;DHT22;39197;53.200;5.792;2023-10-08T02:20:04;13.60;99.90
53310;DHT22;39197;53.200;5.792;2023-10-08T02:22:31;13.60;99.90
53310;DHT22;39197;53.200;5.792;2023-10-08T02:24:58;13.60;99.90
53310;DHT22;39197;53.200;5.792;2023-10-08T02:27:27;13.60;99.90
53310;DHT22;39197;53.200;5.792;2023-10-08T02:29:53;13.50;99.90
53310;DHT22;39197;53.200;5.792;2023-10-08T02:32:20;13.60;99.90
53310;DHT22;39197;53.200;5.792;2023-10-08T02:34:48;13.60;99.90
53310;DHT22;39197;53.200;5.792;2023-10-08T02:37:15;13.60;99.90
53310;DHT22;39197;53.200;5.792;2023-10-08T02:39:41;13.60;99.90
53310;DHT22;39197;53.200;5.792;2023-10-08T02:42:06;13.60;99.90
53310;DHT22;39197;53.200;5.792;2023-10-08T02:44:36;13.60;99.90
53310;DHT22;39197;53.200;5.792;2023-10-08T02:47:08;13.60;99.90
53310;DHT22;39197;53.200;5.792;2023-10-08T02:49:34;13.60;99.90
53310;DHT22;39197;53.200;5.792;2023-10-08T02:52:00;13.70;99.90
53310;DHT22;39197;53.200;5.792;2023-10-08T02:54:29;13.70;99.90
53310;DHT22;39197;53.200;5.792;2023-10-08T02:57:03;13.70;99.90
53310;DHT22;39197;53.200;5.792;2023-10-08T02:59:33;13.70;99.90
53310;DHT22;39197;53.200;5.792;2023-10-08T03:02:09;13.70;99.90
53310;DHT22;39197;53.200;5.792;2023-10-08T03:04:45;13.70;99.90
53310;DHT22;39197;53.200;5.792;2023-10-08T03:07:14;13.70;99.90
53310;DHT22;39197;53.200;5.792;2023-10-08T03:09:48;13.70;99.90
53310;DHT22;39197;53.200;5.792;2023-10-08T03:12:16;13.70;99.90
53310;DHT22;39197;53.200;5.792;2023-10-08T03:14:43;13.70;99.90
53310;DHT22;39197;53.200;5.792;2023-10-08T03:17:37;13.70;99.90
53310;DHT22;39197;53.200;5.792;2023-10-08T03:20:17;13.70;99.90
53310;DHT22;39197;53.200;5.792;2023-10-08T03:22:56;13.70;99.90
53310;DHT22;39197;53.200;5.792;2023-10-08T03:25:23;13.70;99.90
53310;DHT22;39197;53.200;5.792;2023-10-08T03:27:50;13.70;99.90
53310;DHT22;39197;53.200;5.792;2023-10-08T03:30:16;13.70;99.90
53310;DHT22;39197;53.200;5.792;2023-10-08T03:32:45;13.70;99.90
53310;DHT22;39197;53.200;5.792;2023-10-08T03:35:11;13.70;99.90
53310;DHT22;39197;53.200;5.792;2023-10-08T03:37:38;13.70;99.90
53310;DHT22;39197;53.200;5.792;2023-10-08T03:40:11;13.70;99.90
53310;DHT22;39197;53.200;5.792;2023-10-08T03:42:58;13.60;99.90
53310;DHT22;39197;53.200;5.792;2023-10-08T03:45:24;13.60;99.90
53310;DHT22;39197;53.200;5.792;2023-10-08T03:48:08;13.60;99.90
53310;DHT22;39197;53.200;5.792;2023-10-08T03:50:40;13.70;99.90
53310;DHT22;39197;53.200;5.792;2023-10-08T03:53:07;13.70;99.90
53310;DHT22;39197;53.200;5.792;2023-10-08T03:55:38;13.60;99.90
53310;DHT22;39197;53.200;5.792;2023-10-08T03:58:07;13.70;99.90
53310;DHT22;39197;53.200;5.792;2023-10-08T04:00:45;13.60;99.90
53310;DHT22;39197;53.200;5.792;2023-10-08T04:03:11;13.70;99.90
53310;DHT22;39197;53.200;5.792;2023-10-08T04:05:38;13.60;99.90
53310;DHT22;39197;53.200;5.792;2023-10-08T04:08:15;13.60;99.90
53310;DHT22;39197;53.200;5.792;2023-10-08T04:10:50;13.60;99.90
53310;DHT22;39197;53.200;5.792;2023-10-08T04:13:38;13.50;99.90
53310;DHT22;39197;53.200;5.792;2023-10-08T04:16:10;13.50;99.90
53310;DHT22;39197;53.200;5.792;2023-10-08T04:18:36;13.50;99.90
53310;DHT22;39197;53.200;5.792;2023-10-08T04:21:06;13.50;99.90
53310;DHT22;39197;53.200;5.792;2023-10-08T04:23:39;13.50;99.90
53310;DHT22;39197;53.200;5.792;2023-10-08T04:26:05;13.40;99.90
53310;DHT22;39197;53.200;5.792;2023-10-08T04:28:32;13.40;99.90
53310;DHT22;39197;53.200;5.792;2023-10-08T04:31:00;13.40;99.90
53310;DHT22;39197;53.200;5.792;2023-10-08T04:33:40;13.40;99.90
53310;DHT22;39197;53.200;5.792;2023-10-08T04:36:05;13.40;99.90
53310;DHT22;39197;53.200;5.792;2023-10-08T04:38:33;13.50;99.90
53310;DHT22;39197;53.200;5.792;2023-10-08T04:41:06;13.40;99.90
53310;DHT22;39197;53.200;5.792;2023-10-08T04:43:35;13.40;99.90
53310;DHT22;39197;53.200;5.792;2023-10-08T04:46:04;13.40;99.90
53310;DHT22;39197;53.200;5.792;2023-10-08T04:48:31;13.40;99.90
53310;DHT22;39197;53.200;5.792;2023-10-08T04:51:02;13.40;99.90
53310;DHT22;39197;53.200;5.792;2023-10-08T04:53:33;13.40;99.90
53310;DHT22;39197;53.200;5.792;2023-10-08T04:56:08;13.40;99.90
53310;DHT22;39197;53.200;5.792;2023-10-08T04:58:43;13.40;99.90
53310;DHT22;39197;53.200;5.792;2023-10-08T05:01:16;13.30;99.90
53310;DHT22;39197;53.200;5.792;2023-10-08T05:04:04;13.30;99.90
53310;DHT22;39197;53.200;5.792;2023-10-08T05:06:32;13.40;99.90
53310;DHT22;39197;53.200;5.792;2023-10-08T05:09:03;13.40;99.90
53310;DHT22;39197;53.200;5.792;2023-10-08T05:11:46;13.40;99.90
53310;DHT22;39197;53.200;5.792;2023-10-08T05:14:24;13.40;99.90
53310;DHT22;39197;53.200;5.792;2023-10-08T05:16:59;13.40;99.90
53310;DHT22;39197;53.200;5.792;2023-10-08T05:19:43;13.40;99.90
53310;DHT22;39197;53.200;5.792;2023-10-08T05:22:38;13.40;99.90
53310;DHT22;39197;53.200;5.792;2023-10-08T05:25:04;13.40;99.90
53310;DHT22;39197;53.200;5.792;2023-10-08T05:27:34;13.40;99.90
53310;DHT22;39197;53.200;5.792;2023-10-08T05:30:24;13.40;99.90
53310;DHT22;39197;53.200;5.792;2023-10-08T05:32:59;13.40;99.90
53310;DHT22;39197;53.200;5.792;2023-10-08T05:35:44;13.40;99.90
53310;DHT22;39197;53.200;5.792;2023-10-08T05:38:21;13.40;99.90
53310;DHT22;39197;53.200;5.792;2023-10-08T05:40:57;13.40;99.90
53310;DHT22;39197;53.200;5.792;2023-10-08T05:43:28;13.40;99.90
53310;DHT22;39197;53.200;5.792;2023-10-08T05:46:07;13.40;99.90
53310;DHT22;39197;53.200;5.792;2023-10-08T05:49:00;13.40;99.90
53310;DHT22;39197;53.200;5.792;2023-10-08T05:51:29;13.40;99.90
53310;DHT22;39197;53.200;5.792;2023-10-08T05:54:39;13.40;99.90
53310;DHT22;39197;53.200;5.792;2023-10-08T05:57:23;13.40;99.90
53310;DHT22;39197;53.200;5.792;2023-10-08T06:00:05;13.30;99.90
53310;DHT22;39197;53.200;5.792;2023-10-08T06:02:32;13.40;99.90
53310;DHT22;39197;53.200;5.792;2023-10-08T06:05:05;13.30;99.90
53310;DHT22;39197;53.200;5.792;2023-10-08T06:07:50;13.30;99.90
53310;DHT22;39197;53.200;5.792;2023-10-08T06:10:23;13.30;99.90
53310;DHT22;39197;53.200;5.792;2023-10-08T06:12:59;13.30;99.90
53310;DHT22;39197;53.200;5.792;2023-10-08T06:15:46;13.30;99.90
53310;DHT22;39197;53.200;5.792;2023-10-08T06:18:23;13.30;99.90
53310;DHT22;39197;53.200;5.792;2023-10-08T06:20:56;13.30;99.90
53310;DHT22;39197;53.200;5.792;2023-10-08T06:23:24;13.30;99.90
53310;DHT22;39197;53.200;5.792;2023-10-08T06:25:52;13.30;99.90
53310;DHT22;39197;53.200;5.792;2023-10-08T06:28:37;13.30;99.90
53310;DHT22;39197;53.200;5.792;2023-10-08T06:31:04;13.30;99.90
53310;DHT22;39197;53.200;5.792;2023-10-08T06:33:32;13.30;99.90
53310;DHT22;39197;53.200;5.792;2023-10-08T06:36:02;13.30;99.90
53310;DHT22;39197;53.200;5.792;2023-10-08T06:38:40;13.30;99.90
53310;DHT22;39197;53.200;5.792;2023-10-08T06:41:07;13.30;99.90
53310;DHT22;39197;53.200;5.792;2023-10-08T06:43:36;13.30;99.90
53310;DHT22;39197;53.200;5.792;2023-10-08T06:46:03;13.30;99.90
53310;DHT22;39197;53.200;5.792;2023-10-08T06:48:32;13.30;99.90
53310;DHT22;39197;53.200;5.792;2023-10-08T06:51:00;13.30;99.90
53310;DHT22;39197;53.200;5.792;2023-10-08T06:53:33;13.30;99.90
53310;DHT22;39197;53.200;5.792;2023-10-08T06:55:59;13.40;99.90
53310;DHT22;39197;53.200;5.792;2023-10-08T06:58:30;13.40;99.90
53310;DHT22;39197;53.200;5.792;2023-10-08T07:00:58;13.40;99.90
53310;DHT22;39197;53.200;5.792;2023-10-08T07:03:24;13.40;99.90
53310;DHT22;39197;53.200;5.792;2023-10-08T07:05:51;13.40;99.90
53310;DHT22;39197;53.200;5.792;2023-10-08T07:08:24;13.50;99.90
53310;DHT22;39197;53.200;5.792;2023-10-08T07:10:54;13.50;99.90
53310;DHT22;39197;53.200;5.792;2023-10-08T07:13:22;13.60;99.90
53310;DHT22;39197;53.200;5.792;2023-10-08T07:15:49;13.60;99.90
53310;DHT22;39197;53.200;5.792;2023-10-08T07:18:15;13.70;99.90
53310;DHT22;39197;53.200;5.792;2023-10-08T07:20:47;13.70;99.90
53310;DHT22;39197;53.200;5.792;2023-10-08T07:23:18;13.80;99.90
53310;DHT22;39197;53.200;5.792;2023-10-08T07:25:52;13.80;99.90
53310;DHT22;39197;53.200;5.792;2023-10-08T07:28:21;13.90;99.90
53310;DHT22;39197;53.200;5.792;2023-10-08T07:30:47;14.00;99.90
53310;DHT22;39197;53.200;5.792;2023-10-08T07:33:15;14.00;99.90
53310;DHT22;39197;53.200;5.792;2023-10-08T07:35:47;14.00;99.90
53310;DHT22;39197;53.200;5.792;2023-10-08T07:38:39;14.10;99.90
53310;DHT22;39197;53.200;5.792;2023-10-08T07:41:09;14.40;99.90
53310;DHT22;39197;53.200;5.792;2023-10-08T07:43:34;14.60;99.90
53310;DHT22;39197;53.200;5.792;2023-10-08T07:46:00;14.70;99.90
53310;DHT22;39197;53.200;5.792;2023-10-08T07:48:26;14.80;99.90
53310;DHT22;39197;53.200;5.792;2023-10-08T07:50:56;14.90;99.90
53310;DHT22;39197;53.200;5.792;2023-10-08T07:53:25;15.30;99.90
53310;DHT22;39197;53.200;5.792;2023-10-08T07:56:05;15.60;99.90
53310;DHT22;39197;53.200;5.792;2023-10-08T07:58:36;16.00;99.90
53310;DHT22;39197;53.200;5.792;2023-10-08T08:01:08;16.20;99.90
53310;DHT22;39197;53.200;5.792;2023-10-08T08:03:35;16.20;99.90
53310;DHT22;39197;53.200;5.792;2023-10-08T08:06:06;16.30;99.90
53310;DHT22;39197;53.200;5.792;2023-10-08T08:08:33;16.30;99.90
53310;DHT22;39197;53.200;5.792;2023-10-08T08:11:06;16.20;99.90
53310;DHT22;39197;53.200;5.792;2023-10-08T08:13:38;16.10;99.90
53310;DHT22;39197;53.200;5.792;2023-10-08T08:16:04;15.70;99.90
53310;DHT22;39197;53.200;5.792;2023-10-08T08:18:51;15.70;99.90
53310;DHT22;39197;53.200;5.792;2023-10-08T08:21:19;15.60;99.90
53310;DHT22;39197;53.200;5.792;2023-10-08T08:23:46;15.70;99.90
53310;DHT22;39197;53.200;5.792;2023-10-08T08:26:22;15.70;99.90
53310;DHT22;39197;53.200;5.792;2023-10-08T08:28:56;15.80;99.90
53310;DHT22;39197;53.200;5.792;2023-10-08T08:31:23;15.80;99.90
53310;DHT22;39197;53.200;5.792;2023-10-08T08:33:50;15.90;99.90
53310;DHT22;39197;53.200;5.792;2023-10-08T08:36:23;15.80;99.90
53310;DHT22;39197;53.200;5.792;2023-10-08T08:38:49;15.80;99.90
53310;DHT22;39197;53.200;5.792;2023-10-08T08:41:16;15.70;99.90
53310;DHT22;39197;53.200;5.792;2023-10-08T08:43:49;16.10;99.90
53310;DHT22;39197;53.200;5.792;2023-10-08T08:46:15;16.70;99.90
53310;DHT22;39197;53.200;5.792;2023-10-08T08:48:43;17.40;99.90
53310;DHT22;39197;53.200;5.792;2023-10-08T08:51:12;18.20;99.90
53310;DHT22;39197;53.200;5.792;2023-10-08T08:53:39;19.50;99.90
53310;DHT22;39197;53.200;5.792;2023-10-08T08:56:07;19.60;99.90
53310;DHT22;39197;53.200;5.792;2023-10-08T08:58:35;20.30;99.90
53310;DHT22;39197;53.200;5.792;2023-10-08T09:01:05;20.70;99.90
53310;DHT22;39197;53.200;5.792;2023-10-08T09:03:31;20.90;99.90
53310;DHT22;39197;53.200;5.792;2023-10-08T09:06:00;21.50;99.90
53310;DHT22;39197;53.200;5.792;2023-10-08T09:08:36;21.10;99.90
53310;DHT22;39197;53.200;5.792;2023-10-08T09:11:02;21.30;99.90
53310;DHT22;39197;53.200;5.792;2023-10-08T09:13:31;21.10;99.90
53310;DHT22;39197;53.200;5.792;2023-10-08T09:16:15;20.90;99.90
53310;DHT22;39197;53.200;5.792;2023-10-08T09:18:44;20.20;99.90
53310;DHT22;39197;53.200;5.792;2023-10-08T09:21:17;20.10;99.90
53310;DHT22;39197;53.200;5.792;2023-10-08T09:23:49;20.00;99.90
53310;DHT22;39197;53.200;5.792;2023-10-08T09:26:23;19.60;99.90
53310;DHT22;39197;53.200;5.792;2023-10-08T09:28:49;19.40;99.90
53310;DHT22;39197;53.200;5.792;2023-10-08T09:31:17;19.30;99.90
53310;DHT22;39197;53.200;5.792;2023-10-08T09:33:44;19.10;99.90
53310;DHT22;39197;53.200;5.792;2023-10-08T09:36:18;18.90;99.90
53310;DHT22;39197;53.200;5.792;2023-10-08T09:38:45;18.70;99.90
53310;DHT22;39197;53.200;5.792;2023-10-08T09:41:14;18.90;99.90
53310;DHT22;39197;53.200;5.792;2023-10-08T09:43:41;18.60;99.90
53310;DHT22;39197;53.200;5.792;2023-10-08T09:46:18;18.30;99.90
53310;DHT22;39197;53.200;5.792;2023-10-08T09:48:50;18.10;99.90
53310;DHT22;39197;53.200;5.792;2023-10-08T09:51:19;17.90;99.90
53310;DHT22;39197;53.200;5.792;2023-10-08T09:54:10;17.80;99.90
53310;DHT22;39197;53.200;5.792;2023-10-08T09:56:39;18.00;99.90
53310;DHT22;39197;53.200;5.792;2023-10-08T09:59:06;18.00;99.90
53310;DHT22;39197;53.200;5.792;2023-10-08T10:01:38;18.00;99.90
53310;DHT22;39197;53.200;5.792;2023-10-08T10:04:11;18.30;99.90
53310;DHT22;39197;53.200;5.792;2023-10-08T10:06:38;18.40;99.90
53310;DHT22;39197;53.200;5.792;2023-10-08T10:09:05;19.50;99.90
53310;DHT22;39197;53.200;5.792;2023-10-08T10:11:35;19.40;99.90
53310;DHT22;39197;53.200;5.792;2023-10-08T10:14:02;19.80;99.90
53310;DHT22;39197;53.200;5.792;2023-10-08T10:16:32;19.80;99.90
53310;DHT22;39197;53.200;5.792;2023-10-08T10:19:01;19.90;99.90
53310;DHT22;39197;53.200;5.792;2023-10-08T10:21:30;19.70;99.90
53310;DHT22;39197;53.200;5.792;2023-10-08T10:23:59;20.20;99.90
53310;DHT22;39197;53.200;5.792;2023-10-08T10:26:30;20.50;99.90
53310;DHT22;39197;53.200;5.792;2023-10-08T10:34:15;20.30;99.90
53310;DHT22;39197;53.200;5.792;2023-10-08T10:37:11;20.40;99.90
53310;DHT22;39197;53.200;5.792;2023-10-08T10:39:55;21.40;99.90
53310;DHT22;39197;53.200;5.792;2023-10-08T10:42:25;22.00;99.90
53310;DHT22;39197;53.200;5.792;2023-10-08T10:44:54;22.40;99.90
53310;DHT22;39197;53.200;5.792;2023-10-08T10:47:21;21.70;99.90
53310;DHT22;39197;53.200;5.792;2023-10-08T10:49:51;21.10;99.90
53310;DHT22;39197;53.200;5.792;2023-10-08T10:52:36;20.00;99.90
53310;DHT22;39197;53.200;5.792;2023-10-08T10:55:17;19.30;99.90
53310;DHT22;39197;53.200;5.792;2023-10-08T10:57:48;19.30;99.90
53310;DHT22;39197;53.200;5.792;2023-10-08T11:00:22;19.00;99.90
53310;DHT22;39197;53.200;5.792;2023-10-08T11:02:58;18.80;99.90
53310;DHT22;39197;53.200;5.792;2023-10-08T11:05:29;18.60;99.90
53310;DHT22;39197;53.200;5.792;2023-10-08T11:07:56;18.40;99.90
53310;DHT22;39197;53.200;5.792;2023-10-08T11:10:38;18.20;99.90
53310;DHT22;39197;53.200;5.792;2023-10-08T11:13:07;18.00;99.90
53310;DHT22;39197;53.200;5.792;2023-10-08T11:15:43;17.80;99.90
53310;DHT22;39197;53.200;5.792;2023-10-08T11:18:16;18.00;99.90
53310;DHT22;39197;53.200;5.792;2023-10-08T11:20:42;18.00;99.90
53310;DHT22;39197;53.200;5.792;2023-10-08T11:23:37;18.10;99.90
53310;DHT22;39197;53.200;5.792;2023-10-08T11:26:10;18.30;99.90
53310;DHT22;39197;53.200;5.792;2023-10-08T11:28:39;18.50;99.90
53310;DHT22;39197;53.200;5.792;2023-10-08T11:31:11;18.50;99.90
53310;DHT22;39197;53.200;5.792;2023-10-08T11:33:38;18.40;99.90
53310;DHT22;39197;53.200;5.792;2023-10-08T11:36:10;18.50;99.90
53310;DHT22;39197;53.200;5.792;2023-10-08T11:38:48;18.90;99.90
53310;DHT22;39197;53.200;5.792;2023-10-08T11:41:16;18.80;99.90
53310;DHT22;39197;53.200;5.792;2023-10-08T11:43:54;18.80;99.90
53310;DHT22;39197;53.200;5.792;2023-10-08T11:46:31;18.70;99.90
53310;DHT22;39197;53.200;5.792;2023-10-08T11:49:20;18.50;99.90
53310;DHT22;39197;53.200;5.792;2023-10-08T11:51:51;18.20;99.90
53310;DHT22;39197;53.200;5.792;2023-10-08T11:54:21;18.00;99.90
53310;DHT22;39197;53.200;5.792;2023-10-08T11:56:49;17.70;99.90
53310;DHT22;39197;53.200;5.792;2023-10-08T11:59:15;17.90;99.90
53310;DHT22;39197;53.200;5.792;2023-10-08T12:01:44;18.00;99.90
53310;DHT22;39197;53.200;5.792;2023-10-08T12:04:11;17.90;99.90
53310;DHT22;39197;53.200;5.792;2023-10-08T12:06:44;17.90;99.90
53310;DHT22;39197;53.200;5.792;2023-10-08T12:09:15;18.10;99.90
53310;DHT22;39197;53.200;5.792;2023-10-08T12:11:41;18.60;99.90
53310;DHT22;39197;53.200;5.792;2023-10-08T12:14:08;18.70;99.90
53310;DHT22;39197;53.200;5.792;2023-10-08T12:16:34;18.70;99.90
53310;DHT22;39197;53.200;5.792;2023-10-08T12:19:05;18.80;99.90
53310;DHT22;39197;53.200;5.792;2023-10-08T12:21:41;19.40;99.90
53310;DHT22;39197;53.200;5.792;2023-10-08T12:24:07;19.60;99.90
53310;DHT22;39197;53.200;5.792;2023-10-08T12:26:38;19.90;99.90
53310;DHT22;39197;53.200;5.792;2023-10-08T12:29:07;19.70;99.90
53310;DHT22;39197;53.200;5.792;2023-10-08T12:31:33;19.80;99.90
53310;DHT22;39197;53.200;5.792;2023-10-08T12:33:59;20.10;99.90
53310;DHT22;39197;53.200;5.792;2023-10-08T12:36:26;20.30;99.90
53310;DHT22;39197;53.200;5.792;2023-10-08T12:38:54;20.10;99.90
53310;DHT22;39197;53.200;5.792;2023-10-08T12:41:29;20.10;99.90
53310;DHT22;39197;53.200;5.792;2023-10-08T12:43:57;20.50;99.90
53310;DHT22;39197;53.200;5.792;2023-10-08T12:46:23;20.40;99.90
53310;DHT22;39197;53.200;5.792;2023-10-08T12:48:53;20.20;99.90
53310;DHT22;39197;53.200;5.792;2023-10-08T12:51:26;20.60;99.90
53310;DHT22;39197;53.200;5.792;2023-10-08T12:53:52;20.60;99.90
53310;DHT22;39197;53.200;5.792;2023-10-08T12:56:25;20.40;99.90
53310;DHT22;39197;53.200;5.792;2023-10-08T12:58:58;20.70;99.90
53310;DHT22;39197;53.200;5.792;2023-10-08T13:01:30;20.70;99.90
53310;DHT22;39197;53.200;5.792;2023-10-08T13:03:56;20.50;99.90
53310;DHT22;39197;53.200;5.792;2023-10-08T13:06:27;19.90;99.90
53310;DHT22;39197;53.200;5.792;2023-10-08T13:08:59;19.90;99.90
53310;DHT22;39197;53.200;5.792;2023-10-08T13:11:27;19.70;99.90
53310;DHT22;39197;53.200;5.792;2023-10-08T13:13:58;19.50;99.90
53310;DHT22;39197;53.200;5.792;2023-10-08T13:16:27;19.10;99.90
53310;DHT22;39197;53.200;5.792;2023-10-08T13:18:58;18.80;99.90
53310;DHT22;39197;53.200;5.792;2023-10-08T13:21:27;18.80;99.90
53310;DHT22;39197;53.200;5.792;2023-10-08T13:23:57;18.70;99.90
53310;DHT22;39197;53.200;5.792;2023-10-08T13:26:28;18.80;99.90
53310;DHT22;39197;53.200;5.792;2023-10-08T13:29:00;18.50;99.90
53310;DHT22;39197;53.200;5.792;2023-10-08T13:31:29;18.40;99.90
53310;DHT22;39197;53.200;5.792;2023-10-08T13:33:55;18.40;99.90
53310;DHT22;39197;53.200;5.792;2023-10-08T13:36:26;18.20;99.90
53310;DHT22;39197;53.200;5.792;2023-10-08T13:38:52;18.30;99.90
53310;DHT22;39197;53.200;5.792;2023-10-08T13:41:20;18.00;99.90
53310;DHT22;39197;53.200;5.792;2023-10-08T13:43:48;18.10;99.90
53310;DHT22;39197;53.200;5.792;2023-10-08T13:46:15;18.00;99.90
53310;DHT22;39197;53.200;5.792;2023-10-08T13:48:47;18.00;99.90
53310;DHT22;39197;53.200;5.792;2023-10-08T13:51:17;17.90;99.90
53310;DHT22;39197;53.200;5.792;2023-10-08T13:53:54;17.70;99.90
53310;DHT22;39197;53.200;5.792;2023-10-08T13:56:27;17.70;99.90
53310;DHT22;39197;53.200;5.792;2023-10-08T13:58:58;17.70;99.90
53310;DHT22;39197;53.200;5.792;2023-10-08T14:01:45;17.60;99.90
53310;DHT22;39197;53.200;5.792;2023-10-08T14:04:15;17.60;99.90
53310;DHT22;39197;53.200;5.792;2023-10-08T14:06:42;17.60;99.90
53310;DHT22;39197;53.200;5.792;2023-10-08T14:09:13;17.70;99.90
53310;DHT22;39197;53.200;5.792;2023-10-08T14:11:47;17.70;99.90
53310;DHT22;39197;53.200;5.792;2023-10-08T14:14:13;17.80;99.90
53310;DHT22;39197;53.200;5.792;2023-10-08T14:16:39;17.70;99.90
53310;DHT22;39197;53.200;5.792;2023-10-08T14:19:10;17.60;99.90
53310;DHT22;39197;53.200;5.792;2023-10-08T14:21:41;17.40;99.90
53310;DHT22;39197;53.200;5.792;2023-10-08T14:24:26;17.40;99.90
53310;DHT22;39197;53.200;5.792;2023-10-08T14:26:55;17.20;99.90
53310;DHT22;39197;53.200;5.792;2023-10-08T14:29:22;17.10;99.90
53310;DHT22;39197;53.200;5.792;2023-10-08T14:31:52;17.10;99.90
53310;DHT22;39197;53.200;5.792;2023-10-08T14:34:22;17.20;99.90
53310;DHT22;39197;53.200;5.792;2023-10-08T14:37:08;17.20;99.90
53310;DHT22;39197;53.200;5.792;2023-10-08T14:39:53;17.30;99.90
53310;DHT22;39197;53.200;5.792;2023-10-08T14:42:40;17.20;99.90
53310;DHT22;39197;53.200;5.792;2023-10-08T14:45:26;17.20;99.90
53310;DHT22;39197;53.200;5.792;2023-10-08T14:47:56;17.10;99.90
53310;DHT22;39197;53.200;5.792;2023-10-08T14:50:26;17.10;99.90
53310;DHT22;39197;53.200;5.792;2023-10-08T14:52:54;17.20;99.90
53310;DHT22;39197;53.200;5.792;2023-10-08T14:55:23;17.40;99.90
53310;DHT22;39197;53.200;5.792;2023-10-08T14:57:50;17.50;99.90
53310;DHT22;39197;53.200;5.792;2023-10-08T15:00:37;17.70;99.90
53310;DHT22;39197;53.200;5.792;2023-10-08T15:03:04;17.60;99.90
53310;DHT22;39197;53.200;5.792;2023-10-08T15:05:30;17.50;99.90
53310;DHT22;39197;53.200;5.792;2023-10-08T15:07:57;17.60;99.90
53310;DHT22;39197;53.200;5.792;2023-10-08T15:10:23;17.60;99.90
53310;DHT22;39197;53.200;5.792;2023-10-08T15:12:49;17.50;99.90
53310;DHT22;39197;53.200;5.792;2023-10-08T15:15:18;17.40;99.90
53310;DHT22;39197;53.200;5.792;2023-10-08T15:17:45;17.30;99.90
53310;DHT22;39197;53.200;5.792;2023-10-08T15:20:14;17.10;99.90
53310;DHT22;39197;53.200;5.792;2023-10-08T15:22:43;17.00;99.90
53310;DHT22;39197;53.200;5.792;2023-10-08T15:25:10;16.90;99.90
53310;DHT22;39197;53.200;5.792;2023-10-08T15:27:37;16.90;99.90
53310;DHT22;39197;53.200;5.792;2023-10-08T15:30:09;16.80;99.90
53310;DHT22;39197;53.200;5.792;2023-10-08T15:32:42;16.80;99.90
53310;DHT22;39197;53.200;5.792;2023-10-08T15:35:18;16.70;99.90
53310;DHT22;39197;53.200;5.792;2023-10-08T15:37:49;16.60;99.90
53310;DHT22;39197;53.200;5.792;2023-10-08T15:40:16;16.50;99.90
53310;DHT22;39197;53.200;5.792;2023-10-08T15:42:50;16.60;99.90
53310;DHT22;39197;53.200;5.792;2023-10-08T15:45:23;16.60;99.90
53310;DHT22;39197;53.200;5.792;2023-10-08T15:47:49;16.40;99.90
53310;DHT22;39197;53.200;5.792;2023-10-08T15:50:15;16.40;99.90
53310;DHT22;39197;53.200;5.792;2023-10-08T15:52:41;16.30;99.90
53310;DHT22;39197;53.200;5.792;2023-10-08T15:55:10;16.30;99.90
53310;DHT22;39197;53.200;5.792;2023-10-08T15:57:36;16.20;99.90
53310;DHT22;39197;53.200;5.792;2023-10-08T16:00:02;16.20;99.90
53310;DHT22;39197;53.200;5.792;2023-10-08T16:02:30;16.20;99.90